DECKE EDDH-EDLW
Flight info
| Callsign | DECKE |
|---|---|
| Flight time | 1h 12m |
| Altitude | 8000 |
| Route | HABFU1G HABFU Y348 MAWEQ Z718 OSNAD M170 HMM N853 DOMEG DOMEG2A |
| Aircraft | DA42/L-SBDGRY/S |
Departure
| Time | 2026-05-06 17:07 |
|---|---|
| Airport | Hamburg Helmut Schmidt Airport (EDDH) |
Arrival
| Time | 2026-05-06 18:19 |
|---|---|
| Airport | Dortmund Airport (EDLW) |
| Time | Latitude | Longitude | Altitude | Speed | Heading |
|---|---|---|---|---|---|
| 2026-05-06 16:22 | 53.62735 | 9.98912 | 41 ft | 0 kts | 63° |
| 2026-05-06 17:00 | 53.62738 | 9.98914 | 41 ft | 3 kts | 357° |
| 2026-05-06 17:00 | 53.62738 | 9.98840 | 41 ft | 13 kts | 339° |
| 2026-05-06 17:01 | 53.62804 | 9.98796 | 41 ft | 7 kts | 17° |
| 2026-05-06 17:01 | 53.62836 | 9.98850 | 41 ft | 8 kts | 51° |
| 2026-05-06 17:01 | 53.62894 | 9.98965 | 41 ft | 13 kts | 54° |
| 2026-05-06 17:01 | 53.62941 | 9.99062 | 41 ft | 9 kts | 51° |
| 2026-05-06 17:02 | 53.62976 | 9.99133 | 41 ft | 8 kts | 50° |
| 2026-05-06 17:02 | 53.63007 | 9.99195 | 41 ft | 9 kts | 52° |
| 2026-05-06 17:02 | 53.63074 | 9.99287 | 41 ft | 12 kts | 20° |
| 2026-05-06 17:02 | 53.63139 | 9.99316 | 41 ft | 4 kts | 13° |
| 2026-05-06 17:03 | 53.63151 | 9.99321 | 41 ft | 0 kts | 14° |
| 2026-05-06 17:05 | 53.63152 | 9.99321 | 41 ft | 0 kts | 13° |
| 2026-05-06 17:05 | 53.63151 | 9.99321 | 41 ft | 0 kts | 13° |
| 2026-05-06 17:06 | 53.63175 | 9.99330 | 41 ft | 13 kts | 14° |
| 2026-05-06 17:06 | 53.63290 | 9.99376 | 41 ft | 12 kts | 347° |
| 2026-05-06 17:06 | 53.63454 | 9.99239 | 41 ft | 56 kts | 333° |
| 2026-05-06 17:06 | 53.63939 | 9.98807 | 118 ft | 92 kts | 338° |
| 2026-05-06 17:07 | 53.64493 | 9.98256 | 469 ft | 92 kts | 333° |
| 2026-05-06 17:07 | 53.65059 | 9.97766 | 771 ft | 94 kts | 344° |
| 2026-05-06 17:07 | 53.65627 | 9.97261 | 1243 ft | 90 kts | 342° |
| 2026-05-06 17:07 | 53.66192 | 9.96815 | 1649 ft | 90 kts | 345° |
| 2026-05-06 17:08 | 53.66756 | 9.96363 | 2060 ft | 90 kts | 347° |
| 2026-05-06 17:08 | 53.67321 | 9.95900 | 2462 ft | 91 kts | 347° |
| 2026-05-06 17:08 | 53.67901 | 9.95490 | 2856 ft | 91 kts | 350° |
| 2026-05-06 17:08 | 53.68475 | 9.94990 | 3265 ft | 94 kts | 345° |
| 2026-05-06 17:09 | 53.69053 | 9.94480 | 3659 ft | 94 kts | 345° |
| 2026-05-06 17:09 | 53.69624 | 9.93999 | 4040 ft | 95 kts | 345° |
| 2026-05-06 17:09 | 53.70222 | 9.93520 | 4426 ft | 95 kts | 345° |
| 2026-05-06 17:09 | 53.70828 | 9.93051 | 4765 ft | 96 kts | 345° |
| 2026-05-06 17:10 | 53.71434 | 9.92589 | 5103 ft | 95 kts | 345° |
| 2026-05-06 17:10 | 53.72042 | 9.92136 | 5440 ft | 96 kts | 345° |
| 2026-05-06 17:10 | 53.72657 | 9.91705 | 5792 ft | 96 kts | 346° |
| 2026-05-06 17:10 | 53.73273 | 9.91276 | 6140 ft | 96 kts | 343° |
| 2026-05-06 17:11 | 53.73904 | 9.90881 | 6449 ft | 97 kts | 345° |
| 2026-05-06 17:11 | 53.74540 | 9.90494 | 6759 ft | 98 kts | 343° |
| 2026-05-06 17:11 | 53.75199 | 9.90074 | 7011 ft | 104 kts | 345° |
| 2026-05-06 17:11 | 53.75902 | 9.89648 | 7270 ft | 110 kts | 346° |
| 2026-05-06 17:12 | 53.76641 | 9.89190 | 7530 ft | 116 kts | 345° |
| 2026-05-06 17:12 | 53.77412 | 9.88726 | 7789 ft | 119 kts | 345° |
| 2026-05-06 17:12 | 53.78236 | 9.88251 | 7884 ft | 135 kts | 345° |
| 2026-05-06 17:12 | 53.79091 | 9.87411 | 7875 ft | 155 kts | 313° |
| 2026-05-06 17:13 | 53.79456 | 9.85638 | 7881 ft | 170 kts | 272° |
| 2026-05-06 17:13 | 53.79111 | 9.83673 | 7888 ft | 180 kts | 247° |
| 2026-05-06 17:13 | 53.78527 | 9.81767 | 7889 ft | 184 kts | 243° |
| 2026-05-06 17:13 | 53.77927 | 9.79843 | 7888 ft | 186 kts | 245° |
| 2026-05-06 17:14 | 53.77310 | 9.77906 | 7889 ft | 188 kts | 243° |
| 2026-05-06 17:14 | 53.76689 | 9.75960 | 7889 ft | 189 kts | 244° |
| 2026-05-06 17:14 | 53.76056 | 9.74007 | 7889 ft | 190 kts | 244° |
| 2026-05-06 17:14 | 53.75439 | 9.72073 | 7891 ft | 189 kts | 243° |
| 2026-05-06 17:15 | 53.74813 | 9.70089 | 7888 ft | 189 kts | 244° |
| 2026-05-06 17:15 | 53.74188 | 9.68131 | 7888 ft | 189 kts | 244° |
| 2026-05-06 17:15 | 53.73572 | 9.66175 | 7888 ft | 188 kts | 244° |
| 2026-05-06 17:15 | 53.72969 | 9.64230 | 7888 ft | 187 kts | 244° |
| 2026-05-06 17:16 | 53.72363 | 9.62287 | 7888 ft | 187 kts | 243° |
| 2026-05-06 17:16 | 53.71748 | 9.60347 | 7890 ft | 188 kts | 244° |
| 2026-05-06 17:16 | 53.71131 | 9.58402 | 7887 ft | 188 kts | 245° |
| 2026-05-06 17:16 | 53.70518 | 9.56462 | 7888 ft | 188 kts | 244° |
| 2026-05-06 17:17 | 53.69889 | 9.54520 | 7889 ft | 189 kts | 244° |
| 2026-05-06 17:17 | 53.69260 | 9.52563 | 7887 ft | 189 kts | 244° |
| 2026-05-06 17:17 | 53.68634 | 9.50602 | 7885 ft | 189 kts | 243° |
| 2026-05-06 17:17 | 53.68017 | 9.48645 | 7884 ft | 189 kts | 245° |
| 2026-05-06 17:18 | 53.67386 | 9.46761 | 7878 ft | 191 kts | 235° |
| 2026-05-06 17:18 | 53.66308 | 9.45481 | 7884 ft | 191 kts | 197° |
| 2026-05-06 17:18 | 53.64983 | 9.45247 | 7889 ft | 189 kts | 182° |
| 2026-05-06 17:18 | 53.63699 | 9.44955 | 7890 ft | 189 kts | 190° |
| 2026-05-06 17:19 | 53.62403 | 9.44456 | 7884 ft | 188 kts | 193° |
| 2026-05-06 17:19 | 53.61154 | 9.43918 | 7894 ft | 188 kts | 192° |
| 2026-05-06 17:19 | 53.59884 | 9.43382 | 7888 ft | 188 kts | 192° |
| 2026-05-06 17:19 | 53.58610 | 9.42854 | 7889 ft | 189 kts | 192° |
| 2026-05-06 17:20 | 53.57337 | 9.42327 | 7891 ft | 188 kts | 192° |
| 2026-05-06 17:20 | 53.56066 | 9.41799 | 7890 ft | 188 kts | 192° |
| 2026-05-06 17:20 | 53.54794 | 9.41271 | 7891 ft | 189 kts | 191° |
| 2026-05-06 17:20 | 53.53512 | 9.40742 | 7891 ft | 190 kts | 192° |
| 2026-05-06 17:21 | 53.52231 | 9.40213 | 7890 ft | 190 kts | 192° |
| 2026-05-06 17:21 | 53.50949 | 9.39684 | 7888 ft | 190 kts | 192° |
| 2026-05-06 17:21 | 53.49670 | 9.39155 | 7888 ft | 189 kts | 192° |
| 2026-05-06 17:21 | 53.48400 | 9.38631 | 7888 ft | 188 kts | 192° |
| 2026-05-06 17:22 | 53.47125 | 9.38105 | 7887 ft | 189 kts | 192° |
| 2026-05-06 17:22 | 53.45847 | 9.37577 | 7886 ft | 189 kts | 192° |
| 2026-05-06 17:22 | 53.44571 | 9.37054 | 7886 ft | 189 kts | 192° |
| 2026-05-06 17:22 | 53.43299 | 9.36530 | 7887 ft | 188 kts | 192° |
| 2026-05-06 17:23 | 53.42032 | 9.36008 | 7886 ft | 188 kts | 191° |
| 2026-05-06 17:23 | 53.40763 | 9.35487 | 7885 ft | 187 kts | 192° |
| 2026-05-06 17:23 | 53.39499 | 9.34966 | 7887 ft | 187 kts | 191° |
| 2026-05-06 17:23 | 53.38231 | 9.34446 | 7886 ft | 188 kts | 191° |
| 2026-05-06 17:24 | 53.36978 | 9.33937 | 7871 ft | 182 kts | 195° |
| 2026-05-06 17:24 | 53.35749 | 9.33428 | 7869 ft | 181 kts | 195° |
| 2026-05-06 17:24 | 53.34530 | 9.32927 | 7870 ft | 180 kts | 195° |
| 2026-05-06 17:24 | 53.33311 | 9.32428 | 7870 ft | 180 kts | 195° |
| 2026-05-06 17:25 | 53.32095 | 9.31931 | 7871 ft | 180 kts | 195° |
| 2026-05-06 17:25 | 53.30882 | 9.31435 | 7872 ft | 179 kts | 195° |
| 2026-05-06 17:25 | 53.29668 | 9.30939 | 7871 ft | 179 kts | 195° |
| 2026-05-06 17:25 | 53.28455 | 9.30442 | 7872 ft | 180 kts | 195° |
| 2026-05-06 17:26 | 53.27242 | 9.29948 | 7872 ft | 180 kts | 194° |
| 2026-05-06 17:26 | 53.26027 | 9.29452 | 7872 ft | 180 kts | 195° |
| 2026-05-06 17:26 | 53.24811 | 9.28955 | 7872 ft | 180 kts | 195° |
| 2026-05-06 17:26 | 53.23595 | 9.28459 | 7873 ft | 180 kts | 195° |
| 2026-05-06 17:27 | 53.22381 | 9.27964 | 7877 ft | 180 kts | 194° |
| 2026-05-06 17:27 | 53.21164 | 9.27470 | 7877 ft | 180 kts | 194° |
| 2026-05-06 17:27 | 53.19947 | 9.26975 | 7878 ft | 180 kts | 194° |
| 2026-05-06 17:27 | 53.18729 | 9.26479 | 7875 ft | 180 kts | 194° |
| 2026-05-06 17:28 | 53.17506 | 9.25981 | 7881 ft | 181 kts | 194° |
| 2026-05-06 17:28 | 53.16279 | 9.25483 | 7882 ft | 182 kts | 195° |
| 2026-05-06 17:28 | 53.15047 | 9.24983 | 7881 ft | 182 kts | 194° |
| 2026-05-06 17:28 | 53.13818 | 9.24484 | 7880 ft | 181 kts | 194° |
| 2026-05-06 17:29 | 53.12612 | 9.23994 | 7882 ft | 181 kts | 194° |
| 2026-05-06 17:29 | 53.11390 | 9.23500 | 7883 ft | 181 kts | 195° |
| 2026-05-06 17:29 | 53.10165 | 9.23004 | 7883 ft | 181 kts | 194° |
| 2026-05-06 17:29 | 53.08939 | 9.22507 | 7880 ft | 181 kts | 194° |
| 2026-05-06 17:30 | 53.07716 | 9.22011 | 7879 ft | 181 kts | 194° |
| 2026-05-06 17:30 | 53.06490 | 9.21517 | 7879 ft | 181 kts | 194° |
| 2026-05-06 17:30 | 53.05266 | 9.21023 | 7880 ft | 181 kts | 194° |
| 2026-05-06 17:30 | 53.04042 | 9.20531 | 7880 ft | 181 kts | 194° |
| 2026-05-06 17:31 | 53.02818 | 9.20041 | 7883 ft | 181 kts | 194° |
| 2026-05-06 17:31 | 53.01592 | 9.19550 | 7884 ft | 181 kts | 194° |
| 2026-05-06 17:31 | 53.00364 | 9.19059 | 7884 ft | 181 kts | 194° |
| 2026-05-06 17:31 | 52.99137 | 9.18569 | 7882 ft | 181 kts | 194° |
| 2026-05-06 17:32 | 52.97910 | 9.18080 | 7879 ft | 182 kts | 194° |
| 2026-05-06 17:32 | 52.96682 | 9.17591 | 7879 ft | 181 kts | 194° |
| 2026-05-06 17:32 | 52.95455 | 9.17102 | 7879 ft | 181 kts | 194° |
| 2026-05-06 17:32 | 52.94229 | 9.16590 | 7874 ft | 182 kts | 200° |
| 2026-05-06 17:33 | 52.93130 | 9.15574 | 7881 ft | 181 kts | 209° |
| 2026-05-06 17:33 | 52.92012 | 9.14607 | 7881 ft | 181 kts | 208° |
| 2026-05-06 17:33 | 52.90895 | 9.13638 | 7881 ft | 181 kts | 208° |
| 2026-05-06 17:33 | 52.89781 | 9.12648 | 7882 ft | 182 kts | 208° |
| 2026-05-06 17:34 | 52.88663 | 9.11646 | 7884 ft | 183 kts | 208° |
| 2026-05-06 17:34 | 52.87542 | 9.10636 | 7880 ft | 183 kts | 208° |
| 2026-05-06 17:34 | 52.86420 | 9.09631 | 7882 ft | 183 kts | 208° |
| 2026-05-06 17:34 | 52.85299 | 9.08629 | 7881 ft | 184 kts | 208° |
| 2026-05-06 17:35 | 52.84173 | 9.07622 | 7879 ft | 184 kts | 208° |
| 2026-05-06 17:35 | 52.83049 | 9.06619 | 7878 ft | 184 kts | 208° |
| 2026-05-06 17:35 | 52.81927 | 9.05617 | 7877 ft | 183 kts | 208° |
| 2026-05-06 17:36 | 52.79680 | 9.03613 | 7878 ft | 184 kts | 208° |
| 2026-05-06 17:36 | 52.78554 | 9.02610 | 7874 ft | 184 kts | 208° |
| 2026-05-06 17:36 | 52.77427 | 9.01606 | 7873 ft | 184 kts | 208° |
| 2026-05-06 17:36 | 52.76299 | 9.00602 | 7872 ft | 184 kts | 208° |
| 2026-05-06 17:37 | 52.75169 | 8.99597 | 7874 ft | 185 kts | 207° |
| 2026-05-06 17:37 | 52.74032 | 8.98586 | 7873 ft | 186 kts | 207° |
| 2026-05-06 17:37 | 52.72893 | 8.97574 | 7870 ft | 185 kts | 208° |
| 2026-05-06 17:37 | 52.71759 | 8.96566 | 7868 ft | 185 kts | 208° |
| 2026-05-06 17:38 | 52.70627 | 8.95561 | 7864 ft | 186 kts | 207° |
| 2026-05-06 17:38 | 52.69488 | 8.94547 | 7866 ft | 186 kts | 208° |
| 2026-05-06 17:38 | 52.68346 | 8.93541 | 7863 ft | 186 kts | 207° |
| 2026-05-06 17:38 | 52.67205 | 8.92557 | 7861 ft | 185 kts | 207° |
| 2026-05-06 17:39 | 52.66073 | 8.91577 | 7867 ft | 183 kts | 207° |
| 2026-05-06 17:39 | 52.64952 | 8.90605 | 7867 ft | 182 kts | 206° |
| 2026-05-06 17:39 | 52.64212 | 8.89963 | 7864 ft | 181 kts | 206° |
| 2026-05-06 17:39 | 52.63097 | 8.88995 | 7866 ft | 181 kts | 207° |
| 2026-05-06 17:40 | 52.61986 | 8.88032 | 7863 ft | 181 kts | 206° |
| 2026-05-06 17:40 | 52.60871 | 8.87067 | 7864 ft | 181 kts | 206° |
| 2026-05-06 17:40 | 52.59759 | 8.86105 | 7862 ft | 181 kts | 206° |
| 2026-05-06 17:40 | 52.58648 | 8.85143 | 7862 ft | 181 kts | 206° |
| 2026-05-06 17:41 | 52.57536 | 8.84182 | 7860 ft | 181 kts | 206° |
| 2026-05-06 17:41 | 52.56425 | 8.83221 | 7858 ft | 181 kts | 206° |
| 2026-05-06 17:41 | 52.55313 | 8.82262 | 7858 ft | 181 kts | 207° |
| 2026-05-06 17:41 | 52.54201 | 8.81301 | 7857 ft | 181 kts | 207° |
| 2026-05-06 17:42 | 52.53087 | 8.80341 | 7860 ft | 181 kts | 207° |
| 2026-05-06 17:42 | 52.51974 | 8.79381 | 7859 ft | 181 kts | 207° |
| 2026-05-06 17:42 | 52.50859 | 8.78420 | 7859 ft | 181 kts | 206° |
| 2026-05-06 17:42 | 52.49740 | 8.77457 | 7858 ft | 182 kts | 206° |
| 2026-05-06 17:43 | 52.48623 | 8.76496 | 7858 ft | 182 kts | 207° |
| 2026-05-06 17:43 | 52.47501 | 8.75531 | 7857 ft | 182 kts | 207° |
| 2026-05-06 17:43 | 52.46378 | 8.74565 | 7856 ft | 183 kts | 206° |
| 2026-05-06 17:43 | 52.45254 | 8.73600 | 7856 ft | 183 kts | 206° |
| 2026-05-06 17:44 | 52.44542 | 8.72989 | 7857 ft | 183 kts | 206° |
| 2026-05-06 17:44 | 52.43417 | 8.72023 | 7856 ft | 183 kts | 206° |
| 2026-05-06 17:44 | 52.42293 | 8.71058 | 7856 ft | 182 kts | 207° |
| 2026-05-06 17:44 | 52.41170 | 8.70095 | 7857 ft | 182 kts | 207° |
| 2026-05-06 17:45 | 52.40044 | 8.69131 | 7853 ft | 183 kts | 207° |
| 2026-05-06 17:45 | 52.38920 | 8.68169 | 7852 ft | 182 kts | 206° |
| 2026-05-06 17:45 | 52.37794 | 8.67205 | 7852 ft | 182 kts | 207° |
| 2026-05-06 17:45 | 52.36671 | 8.66244 | 7857 ft | 183 kts | 207° |
| 2026-05-06 17:46 | 52.35543 | 8.65279 | 7853 ft | 183 kts | 206° |
| 2026-05-06 17:46 | 52.34409 | 8.64312 | 7855 ft | 183 kts | 207° |
| 2026-05-06 17:46 | 52.33281 | 8.63349 | 7848 ft | 183 kts | 206° |
| 2026-05-06 17:46 | 52.32154 | 8.62386 | 7851 ft | 183 kts | 207° |
| 2026-05-06 17:47 | 52.31025 | 8.61423 | 7857 ft | 183 kts | 206° |
| 2026-05-06 17:47 | 52.29896 | 8.60460 | 7849 ft | 183 kts | 206° |
| 2026-05-06 17:47 | 52.28763 | 8.59496 | 7855 ft | 183 kts | 206° |
| 2026-05-06 17:47 | 52.27691 | 8.58381 | 7845 ft | 184 kts | 222° |
| 2026-05-06 17:48 | 52.26957 | 8.56716 | 7852 ft | 185 kts | 245° |
| 2026-05-06 17:48 | 52.26465 | 8.54775 | 7860 ft | 185 kts | 248° |
| 2026-05-06 17:48 | 52.25991 | 8.52826 | 7849 ft | 184 kts | 248° |
| 2026-05-06 17:48 | 52.25520 | 8.50886 | 7864 ft | 184 kts | 248° |
| 2026-05-06 17:49 | 52.25044 | 8.48944 | 7866 ft | 185 kts | 248° |
| 2026-05-06 17:49 | 52.24565 | 8.46992 | 7861 ft | 185 kts | 248° |
| 2026-05-06 17:49 | 52.24086 | 8.45045 | 7858 ft | 185 kts | 248° |
| 2026-05-06 17:49 | 52.23606 | 8.43095 | 7858 ft | 185 kts | 248° |
| 2026-05-06 17:50 | 52.23126 | 8.41145 | 7862 ft | 186 kts | 248° |
| 2026-05-06 17:50 | 52.22639 | 8.39174 | 7862 ft | 188 kts | 250° |
| 2026-05-06 17:50 | 52.22151 | 8.37190 | 7860 ft | 189 kts | 251° |
| 2026-05-06 17:50 | 52.21660 | 8.35205 | 7860 ft | 188 kts | 251° |
| 2026-05-06 17:51 | 52.21171 | 8.33223 | 7861 ft | 188 kts | 252° |
| 2026-05-06 17:51 | 52.20680 | 8.31244 | 7862 ft | 188 kts | 250° |
| 2026-05-06 17:51 | 52.20183 | 8.29269 | 7870 ft | 189 kts | 247° |
| 2026-05-06 17:51 | 52.19413 | 8.27527 | 7868 ft | 190 kts | 229° |
| 2026-05-06 17:52 | 52.18501 | 8.25965 | 7870 ft | 191 kts | 228° |
| 2026-05-06 17:52 | 52.17577 | 8.24407 | 7870 ft | 191 kts | 228° |
| 2026-05-06 17:52 | 52.16653 | 8.22844 | 7872 ft | 192 kts | 228° |
| 2026-05-06 17:52 | 52.15729 | 8.21280 | 7872 ft | 192 kts | 228° |
| 2026-05-06 17:53 | 52.14801 | 8.19706 | 7878 ft | 193 kts | 228° |
| 2026-05-06 17:53 | 52.13870 | 8.18128 | 7875 ft | 193 kts | 228° |
| 2026-05-06 17:53 | 52.12923 | 8.16524 | 7875 ft | 192 kts | 228° |
| 2026-05-06 17:53 | 52.12013 | 8.14985 | 7876 ft | 193 kts | 228° |
| 2026-05-06 17:54 | 52.11086 | 8.13415 | 7878 ft | 192 kts | 227° |
| 2026-05-06 17:54 | 52.10158 | 8.11849 | 7879 ft | 192 kts | 228° |
| 2026-05-06 17:54 | 52.09232 | 8.10286 | 7880 ft | 191 kts | 227° |
| 2026-05-06 17:54 | 52.08306 | 8.08725 | 7879 ft | 192 kts | 228° |
| 2026-05-06 17:55 | 52.07379 | 8.07160 | 7881 ft | 192 kts | 227° |
| 2026-05-06 17:55 | 52.06452 | 8.05598 | 7884 ft | 192 kts | 227° |
| 2026-05-06 17:55 | 52.05535 | 8.04055 | 7888 ft | 193 kts | 228° |
| 2026-05-06 17:55 | 52.04591 | 8.02464 | 7887 ft | 193 kts | 228° |
| 2026-05-06 17:56 | 52.03658 | 8.00895 | 7886 ft | 193 kts | 227° |
| 2026-05-06 17:56 | 52.02724 | 7.99326 | 7881 ft | 194 kts | 228° |
| 2026-05-06 17:56 | 52.01787 | 7.97750 | 7876 ft | 193 kts | 228° |
| 2026-05-06 17:56 | 52.00858 | 7.96190 | 7878 ft | 190 kts | 228° |
| 2026-05-06 17:57 | 51.99946 | 7.94656 | 7881 ft | 188 kts | 229° |
| 2026-05-06 17:57 | 51.99040 | 7.93135 | 7878 ft | 187 kts | 229° |
| 2026-05-06 17:57 | 51.98138 | 7.91622 | 7879 ft | 186 kts | 228° |
| 2026-05-06 17:57 | 51.97238 | 7.90113 | 7879 ft | 186 kts | 229° |
| 2026-05-06 17:58 | 51.96348 | 7.88629 | 7878 ft | 186 kts | 228° |
| 2026-05-06 17:58 | 51.95451 | 7.87130 | 7879 ft | 186 kts | 228° |
| 2026-05-06 17:58 | 51.94551 | 7.85624 | 7878 ft | 186 kts | 228° |
| 2026-05-06 17:58 | 51.93655 | 7.84121 | 7879 ft | 185 kts | 228° |
| 2026-05-06 17:59 | 51.92759 | 7.82625 | 7870 ft | 185 kts | 228° |
| 2026-05-06 17:59 | 51.91851 | 7.81113 | 7871 ft | 189 kts | 229° |
| 2026-05-06 17:59 | 51.90932 | 7.79585 | 7870 ft | 191 kts | 229° |
| 2026-05-06 17:59 | 51.90004 | 7.78039 | 7871 ft | 192 kts | 229° |
| 2026-05-06 18:00 | 51.89074 | 7.76487 | 7874 ft | 192 kts | 229° |
| 2026-05-06 18:00 | 51.88141 | 7.74927 | 7874 ft | 193 kts | 229° |
| 2026-05-06 18:00 | 51.87204 | 7.73361 | 7874 ft | 193 kts | 229° |
| 2026-05-06 18:00 | 51.86275 | 7.71807 | 7873 ft | 193 kts | 229° |
| 2026-05-06 18:01 | 51.85242 | 7.70416 | 7871 ft | 195 kts | 209° |
| 2026-05-06 18:01 | 51.84059 | 7.69454 | 7880 ft | 184 kts | 207° |
| 2026-05-06 18:01 | 51.82941 | 7.68558 | 7872 ft | 175 kts | 208° |
| 2026-05-06 18:01 | 51.81868 | 7.67682 | 7871 ft | 171 kts | 208° |
| 2026-05-06 18:02 | 51.80812 | 7.66814 | 7870 ft | 170 kts | 208° |
| 2026-05-06 18:02 | 51.79763 | 7.65950 | 7869 ft | 169 kts | 208° |
| 2026-05-06 18:02 | 51.78723 | 7.65095 | 7866 ft | 167 kts | 209° |
| 2026-05-06 18:02 | 51.77690 | 7.64245 | 7865 ft | 166 kts | 209° |
| 2026-05-06 18:03 | 51.76660 | 7.63398 | 7865 ft | 166 kts | 209° |
| 2026-05-06 18:03 | 51.75633 | 7.62554 | 7864 ft | 166 kts | 209° |
| 2026-05-06 18:03 | 51.74605 | 7.61710 | 7862 ft | 166 kts | 209° |
| 2026-05-06 18:03 | 51.73578 | 7.60867 | 7862 ft | 166 kts | 209° |
| 2026-05-06 18:04 | 51.72550 | 7.60024 | 7859 ft | 166 kts | 208° |
| 2026-05-06 18:04 | 51.71518 | 7.59195 | 7856 ft | 166 kts | 205° |
| 2026-05-06 18:04 | 51.70387 | 7.58872 | 7856 ft | 166 kts | 176° |
| 2026-05-06 18:04 | 51.69243 | 7.59106 | 7859 ft | 166 kts | 170° |
| 2026-05-06 18:05 | 51.68097 | 7.59387 | 7858 ft | 167 kts | 169° |
| 2026-05-06 18:05 | 51.66950 | 7.59668 | 7858 ft | 167 kts | 170° |
| 2026-05-06 18:05 | 51.65801 | 7.59945 | 7857 ft | 167 kts | 170° |
| 2026-05-06 18:05 | 51.64656 | 7.60221 | 7864 ft | 167 kts | 170° |
| 2026-05-06 18:06 | 51.63504 | 7.60500 | 7860 ft | 167 kts | 170° |
| 2026-05-06 18:06 | 51.62352 | 7.60779 | 7859 ft | 167 kts | 170° |
| 2026-05-06 18:06 | 51.61218 | 7.61053 | 7858 ft | 167 kts | 170° |
| 2026-05-06 18:06 | 51.60051 | 7.61337 | 7858 ft | 167 kts | 170° |
| 2026-05-06 18:07 | 51.58917 | 7.61613 | 7860 ft | 167 kts | 170° |
| 2026-05-06 18:07 | 51.57764 | 7.61894 | 7851 ft | 168 kts | 170° |
| 2026-05-06 18:07 | 51.56554 | 7.62194 | 7638 ft | 186 kts | 170° |
| 2026-05-06 18:07 | 51.55223 | 7.62533 | 7379 ft | 200 kts | 170° |
| 2026-05-06 18:08 | 51.53818 | 7.62888 | 7113 ft | 207 kts | 171° |
| 2026-05-06 18:08 | 51.52377 | 7.63226 | 6839 ft | 211 kts | 176° |
| 2026-05-06 18:08 | 51.50966 | 7.62733 | 6592 ft | 209 kts | 210° |
| 2026-05-06 18:08 | 51.49941 | 7.61154 | 6356 ft | 204 kts | 239° |
| 2026-05-06 18:09 | 51.49213 | 7.59209 | 6094 ft | 203 kts | 240° |
| 2026-05-06 18:09 | 51.48334 | 7.57426 | 5830 ft | 205 kts | 227° |
| 2026-05-06 18:09 | 51.47264 | 7.55915 | 5564 ft | 206 kts | 221° |
| 2026-05-06 18:09 | 51.46148 | 7.54486 | 5292 ft | 206 kts | 221° |
| 2026-05-06 18:10 | 51.45043 | 7.53035 | 5022 ft | 205 kts | 222° |
| 2026-05-06 18:10 | 51.43965 | 7.51588 | 4861 ft | 200 kts | 222° |
| 2026-05-06 18:10 | 51.42893 | 7.50145 | 4619 ft | 202 kts | 222° |
| 2026-05-06 18:10 | 51.41818 | 7.48701 | 4368 ft | 203 kts | 222° |
| 2026-05-06 18:11 | 51.40734 | 7.47238 | 4101 ft | 203 kts | 222° |
| 2026-05-06 18:11 | 51.39673 | 7.45777 | 3933 ft | 199 kts | 225° |
| 2026-05-06 18:11 | 51.39002 | 7.43898 | 3718 ft | 194 kts | 260° |
| 2026-05-06 18:11 | 51.39104 | 7.41816 | 3497 ft | 187 kts | 295° |
| 2026-05-06 18:12 | 51.39886 | 7.40225 | 3298 ft | 181 kts | 323° |
| 2026-05-06 18:12 | 51.40877 | 7.38986 | 3085 ft | 180 kts | 327° |
| 2026-05-06 18:12 | 51.41867 | 7.37811 | 3012 ft | 173 kts | 327° |
| 2026-05-06 18:12 | 51.42843 | 7.36743 | 3006 ft | 167 kts | 339° |
| 2026-05-06 18:13 | 51.43946 | 7.36644 | 3013 ft | 159 kts | 18° |
| 2026-05-06 18:13 | 51.44794 | 7.37720 | 3012 ft | 160 kts | 57° |
| 2026-05-06 18:13 | 51.45012 | 7.38854 | 3010 ft | 164 kts | 83° |
| 2026-05-06 18:13 | 51.44722 | 7.40528 | 3010 ft | 164 kts | 121° |
| 2026-05-06 18:14 | 51.44302 | 7.42096 | 2973 ft | 146 kts | 89° |
| 2026-05-06 18:14 | 51.44601 | 7.43517 | 3019 ft | 130 kts | 49° |
| 2026-05-06 18:14 | 51.45294 | 7.44403 | 2991 ft | 127 kts | 30° |
| 2026-05-06 18:14 | 51.45997 | 7.45269 | 2859 ft | 129 kts | 43° |
| 2026-05-06 18:15 | 51.46515 | 7.46388 | 2498 ft | 117 kts | 54° |
| 2026-05-06 18:15 | 51.46871 | 7.47290 | 2403 ft | 82 kts | 53° |
| 2026-05-06 18:15 | 51.47172 | 7.48079 | 2278 ft | 81 kts | 53° |
| 2026-05-06 18:15 | 51.47451 | 7.48835 | 2174 ft | 78 kts | 54° |
| 2026-05-06 18:16 | 51.47728 | 7.49586 | 2069 ft | 79 kts | 54° |
| 2026-05-06 18:16 | 51.48002 | 7.50352 | 1941 ft | 79 kts | 55° |
| 2026-05-06 18:16 | 51.48274 | 7.51126 | 1833 ft | 80 kts | 54° |
| 2026-05-06 18:16 | 51.48548 | 7.51901 | 1723 ft | 79 kts | 54° |
| 2026-05-06 18:17 | 51.48821 | 7.52671 | 1613 ft | 80 kts | 53° |
| 2026-05-06 18:17 | 51.49104 | 7.53469 | 1498 ft | 87 kts | 55° |
| 2026-05-06 18:17 | 51.49423 | 7.54377 | 1361 ft | 97 kts | 56° |
| 2026-05-06 18:17 | 51.49764 | 7.55345 | 1211 ft | 101 kts | 56° |
| 2026-05-06 18:18 | 51.50116 | 7.56345 | 1059 ft | 105 kts | 57° |
| 2026-05-06 18:18 | 51.50473 | 7.57358 | 905 ft | 99 kts | 56° |
| 2026-05-06 18:18 | 51.50789 | 7.58260 | 783 ft | 86 kts | 57° |
| 2026-05-06 18:18 | 51.51066 | 7.59079 | 698 ft | 80 kts | 53° |
| 2026-05-06 18:19 | 51.51351 | 7.59868 | 600 ft | 87 kts | 52° |
| 2026-05-06 18:19 | 51.51659 | 7.60730 | 434 ft | 87 kts | 53° |
| 2026-05-06 18:19 | 51.51895 | 7.61391 | 413 ft | 50 kts | 60° |
| 2026-05-06 18:19 | 51.52065 | 7.61879 | 412 ft | 44 kts | 59° |
| 2026-05-06 18:20 | 51.52185 | 7.62225 | 413 ft | 25 kts | 63° |
| 2026-05-06 18:20 | 51.52158 | 7.62337 | 413 ft | 14 kts | 150° |
| 2026-05-06 18:20 | 51.52103 | 7.62387 | 411 ft | 1 kts | 147° |
| 2026-05-06 18:21 | 51.52042 | 7.62362 | 410 ft | 12 kts | 246° |
| 2026-05-06 18:21 | 51.52002 | 7.62246 | 411 ft | 11 kts | 240° |
| 2026-05-06 18:21 | 51.51942 | 7.62072 | 412 ft | 26 kts | 240° |
| 2026-05-06 18:22 | 51.51835 | 7.61776 | 414 ft | 27 kts | 239° |
| 2026-05-06 18:22 | 51.51759 | 7.61556 | 423 ft | 22 kts | 241° |
| 2026-05-06 18:22 | 51.51673 | 7.61314 | 424 ft | 29 kts | 242° |
| 2026-05-06 18:22 | 51.51584 | 7.61065 | 427 ft | 18 kts | 227° |
| 2026-05-06 18:23 | 51.51499 | 7.61025 | 421 ft | 14 kts | 241° |
| 2026-05-06 18:23 | 51.51430 | 7.60828 | 426 ft | 26 kts | 240° |
| 2026-05-06 18:23 | 51.51345 | 7.60587 | 436 ft | 28 kts | 240° |
| 2026-05-06 18:23 | 51.51254 | 7.60325 | 440 ft | 26 kts | 241° |
| 2026-05-06 18:24 | 51.51177 | 7.60161 | 441 ft | 14 kts | 181° |
| 2026-05-06 18:24 | 51.51182 | 7.60270 | 443 ft | 12 kts | 53° |
| 2026-05-06 18:24 | 51.51237 | 7.60417 | 440 ft | 16 kts | 60° |
| 2026-05-06 18:24 | 51.51260 | 7.60520 | 443 ft | 6 kts | 106° |
| 2026-05-06 18:25 | 51.51254 | 7.60556 | 443 ft | 0 kts | 103° |